createdAt,value
2024-03-12T00:00:02.911Z,95253.00
2024-03-12T00:01:03.046Z,95253.00
2024-03-12T00:02:03.173Z,95254.00
2024-03-12T00:03:03.293Z,95253.00
2024-03-12T00:04:03.537Z,95253.00
2024-03-12T00:05:03.620Z,95255.00
2024-03-12T00:06:03.801Z,95254.00
2024-03-12T00:07:04.017Z,95254.00
2024-03-12T00:08:04.120Z,95256.00
2024-03-12T00:09:04.291Z,95258.00
2024-03-12T00:10:04.655Z,95259.00
2024-03-12T00:11:04.643Z,95260.00
2024-03-12T00:12:04.780Z,95261.00
2024-03-12T00:13:04.944Z,95261.00
2024-03-12T00:14:05.188Z,95262.00
2024-03-12T00:15:05.252Z,95263.00
2024-03-12T00:16:05.484Z,95262.00
2024-03-12T00:17:05.569Z,95261.00
2024-03-12T00:18:05.798Z,95260.00
2024-03-12T00:19:05.911Z,95261.00
2024-03-12T00:20:06.096Z,95259.00
2024-03-12T00:21:06.222Z,95260.00
2024-03-12T00:22:06.465Z,95263.00
2024-03-12T00:23:06.541Z,95268.00
2024-03-12T00:24:06.721Z,95269.00
2024-03-12T00:25:06.904Z,95267.00
2024-03-12T00:26:07.053Z,95267.00
2024-03-12T00:27:07.285Z,95267.00
2024-03-12T00:28:07.451Z,95268.00
2024-03-12T00:29:07.351Z,95271.00
2024-03-12T00:30:07.439Z,95272.00
2024-03-12T00:31:07.617Z,95273.00
2024-03-12T00:32:07.731Z,95275.00
2024-03-12T00:33:07.970Z,95275.00
2024-03-12T00:34:08.132Z,95280.00
2024-03-12T00:35:08.239Z,95280.00
2024-03-12T00:36:08.285Z,95280.00
2024-03-12T00:37:08.449Z,95279.00
2024-03-12T00:38:08.463Z,95282.00
2024-03-12T00:39:08.539Z,95286.00
2024-03-12T00:40:08.770Z,95289.00
2024-03-12T00:41:08.710Z,95293.00
2024-03-12T00:42:08.799Z,95291.00
2024-03-12T00:43:09.123Z,95290.00
2024-03-12T00:44:09.004Z,95292.00
2024-03-12T00:45:09.074Z,95290.00
2024-03-12T00:46:09.156Z,95290.00
2024-03-12T00:47:09.232Z,95293.00
2024-03-12T00:48:09.334Z,95296.00
2024-03-12T00:49:09.453Z,95295.00
2024-03-12T00:50:09.558Z,95294.00
2024-03-12T00:51:09.738Z,95293.00
2024-03-12T00:52:09.981Z,95292.00
2024-03-12T00:53:10.068Z,95295.00
2024-03-12T00:54:10.234Z,95299.00
2024-03-12T00:55:10.514Z,95298.00
2024-03-12T00:56:11.589Z,95298.00
2024-03-12T00:57:10.631Z,95296.00
2024-03-12T00:58:10.752Z,95296.00
2024-03-12T00:59:10.816Z,95297.00
2024-03-12T01:00:10.900Z,95297.00
2024-03-12T01:01:11.168Z,95300.00
2024-03-12T01:02:11.252Z,95303.00
2024-03-12T01:03:11.410Z,95306.00
2024-03-12T01:04:11.593Z,95307.00
2024-03-12T01:05:11.766Z,95304.00
2024-03-12T01:06:11.811Z,95306.00
2024-03-12T01:07:11.936Z,95305.00
2024-03-12T01:08:11.939Z,95307.00
2024-03-12T01:09:12.015Z,95310.00
2024-03-12T01:10:12.201Z,95312.00
2024-03-12T01:11:12.237Z,95314.00
2024-03-12T01:12:12.257Z,95315.00
2024-03-12T01:13:12.748Z,95318.00
2024-03-12T01:14:12.383Z,95319.00
2024-03-12T01:15:12.468Z,95318.00
2024-03-12T01:16:12.567Z,95320.00
2024-03-12T01:17:12.614Z,95318.00
2024-03-12T01:18:12.794Z,95315.00
2024-03-12T01:19:12.961Z,95317.00
2024-03-12T01:20:13.106Z,95314.00
2024-03-12T01:21:13.279Z,95310.00
2024-03-12T01:22:13.425Z,95311.00
2024-03-12T01:23:13.621Z,95313.00
2024-03-12T01:24:13.784Z,95313.00
2024-03-12T01:25:13.995Z,95313.00
2024-03-12T01:26:14.144Z,95316.00
2024-03-12T01:27:14.239Z,95319.00
2024-03-12T01:28:14.369Z,95319.00
2024-03-12T01:29:14.394Z,95319.00
2024-03-12T01:30:14.443Z,95319.00
2024-03-12T01:31:14.609Z,95321.00
2024-03-12T01:32:14.757Z,95321.00
2024-03-12T01:33:14.999Z,95319.00
2024-03-12T01:34:15.109Z,95321.00
2024-03-12T01:35:15.301Z,95321.00
2024-03-12T01:36:15.440Z,95324.00
2024-03-12T01:37:15.636Z,95324.00
2024-03-12T01:38:15.684Z,95328.00
2024-03-12T01:39:15.765Z,95328.00
2024-03-12T01:40:15.841Z,95324.00
2024-03-12T01:41:15.878Z,95324.00
2024-03-12T01:42:16.065Z,95323.00
2024-03-12T01:43:16.274Z,95323.00
2024-03-12T01:44:16.423Z,95324.00
2024-03-12T01:45:17.077Z,95327.00
2024-03-12T01:46:16.714Z,95329.00
2024-03-12T01:47:16.730Z,95328.00
2024-03-12T01:48:16.793Z,95328.00
2024-03-12T01:49:16.883Z,95327.00
2024-03-12T01:50:17.064Z,95332.00
2024-03-12T01:51:17.197Z,95333.00
2024-03-12T01:52:17.257Z,95340.00
2024-03-12T01:53:17.332Z,95344.00
2024-03-12T01:54:17.382Z,95345.00
2024-03-12T01:55:22.564Z,95343.00
2024-03-12T01:56:17.481Z,95344.00
2024-03-12T01:57:17.494Z,95341.00
2024-03-12T01:58:17.840Z,95343.00
2024-03-12T01:59:17.527Z,95345.00
2024-03-12T02:00:17.506Z,95343.00
2024-03-12T02:01:17.654Z,95343.00
2024-03-12T02:02:17.519Z,95343.00
2024-03-12T02:03:17.598Z,95346.00
2024-03-12T02:04:17.604Z,95345.00
2024-03-12T02:05:17.653Z,95347.00
2024-03-12T02:06:17.710Z,95349.00
2024-03-12T02:07:17.761Z,95351.00
2024-03-12T02:08:18.070Z,95352.00
2024-03-12T02:09:17.837Z,95355.00
2024-03-12T02:10:17.903Z,95354.00
2024-03-12T02:11:17.974Z,95355.00
2024-03-12T02:12:18.002Z,95357.00
2024-03-12T02:13:18.089Z,95360.00
2024-03-12T02:14:18.112Z,95364.00
2024-03-12T02:15:18.165Z,95367.00
2024-03-12T02:16:18.257Z,95369.00
2024-03-12T02:17:18.279Z,95368.00
2024-03-12T02:18:18.375Z,95369.00
2024-03-12T02:19:18.408Z,95369.00
2024-03-12T02:20:18.437Z,95372.00
2024-03-12T02:21:18.498Z,95374.00
2024-03-12T02:22:18.546Z,95374.00
2024-03-12T02:23:18.629Z,95376.00
2024-03-12T02:24:18.657Z,95373.00
2024-03-12T02:25:18.714Z,95371.00
2024-03-12T02:26:18.736Z,95372.00
2024-03-12T02:27:18.782Z,95370.00
2024-03-12T02:28:18.855Z,95369.00
2024-03-12T02:29:18.882Z,95370.00
2024-03-12T02:30:18.980Z,95374.00
2024-03-12T02:31:19.058Z,95375.00
2024-03-12T02:32:19.182Z,95376.00
2024-03-12T02:33:19.298Z,95377.00
2024-03-12T02:34:19.306Z,95375.00
2024-03-12T02:35:19.353Z,95373.00
2024-03-12T02:36:19.406Z,95372.00
2024-03-12T02:37:19.517Z,95369.00
2024-03-12T02:38:19.705Z,95370.00
2024-03-12T02:39:19.773Z,95368.00
2024-03-12T02:40:20.063Z,95369.00
2024-03-12T02:41:19.899Z,95371.00
2024-03-12T02:42:19.951Z,95370.00
2024-03-12T02:43:20.024Z,95370.00
2024-03-12T02:44:20.093Z,95373.00
2024-03-12T02:45:20.144Z,95377.00
2024-03-12T02:46:20.205Z,95380.00
2024-03-12T02:47:20.276Z,95385.00
2024-03-12T02:48:20.357Z,95383.00
2024-03-12T02:49:20.412Z,95381.00
2024-03-12T02:50:20.500Z,95381.00
2024-03-12T02:51:20.579Z,95381.00
2024-03-12T02:52:20.633Z,95380.00
2024-03-12T02:53:20.700Z,95380.00
2024-03-12T02:54:20.752Z,95380.00
2024-03-12T02:55:20.810Z,95380.00
2024-03-12T02:56:20.863Z,95381.00
2024-03-12T02:57:20.934Z,95381.00
2024-03-12T02:58:21.006Z,95381.00
2024-03-12T02:59:21.059Z,95381.00
2024-03-12T03:00:21.104Z,95385.00
2024-03-12T03:01:21.339Z,95385.00
2024-03-12T03:02:21.350Z,95383.00
2024-03-12T03:03:21.405Z,95383.00
2024-03-12T03:04:21.438Z,95384.00
2024-03-12T03:05:21.530Z,95384.00
2024-03-12T03:06:21.704Z,95384.00
2024-03-12T03:07:21.880Z,95381.00
2024-03-12T03:08:31.900Z,95381.00
2024-03-12T03:09:31.878Z,95378.00
2024-03-12T03:10:31.880Z,95382.00
2024-03-12T03:11:31.873Z,95380.00
2024-03-12T03:12:31.938Z,95379.00
2024-03-12T03:13:31.866Z,95377.00
2024-03-12T03:14:31.898Z,95375.00
2024-03-12T03:15:31.938Z,95375.00
2024-03-12T03:16:31.889Z,95376.00
2024-03-12T03:17:31.931Z,95378.00
2024-03-12T03:18:32.081Z,95377.00
2024-03-12T03:19:32.217Z,95379.00
2024-03-12T03:20:32.392Z,95379.00
2024-03-12T03:21:32.589Z,95377.00
2024-03-12T03:22:32.694Z,95376.00
2024-03-12T03:23:32.848Z,95378.00
2024-03-12T03:24:33.008Z,95379.00
2024-03-12T03:25:33.079Z,95379.00
2024-03-12T03:26:33.181Z,95379.00
2024-03-12T03:27:33.297Z,95382.00
2024-03-12T03:28:33.363Z,95383.00
2024-03-12T03:29:33.478Z,95383.00
2024-03-12T03:30:33.613Z,95385.00
2024-03-12T03:31:33.724Z,95386.00
2024-03-12T03:32:33.945Z,95388.00
2024-03-12T03:33:34.015Z,95388.00
2024-03-12T03:34:34.063Z,95390.00
2024-03-12T03:35:34.177Z,95392.00
2024-03-12T03:36:34.264Z,95393.00
2024-03-12T03:37:34.350Z,95395.00
2024-03-12T03:38:39.488Z,95393.00
2024-03-12T03:39:34.539Z,95392.00
2024-03-12T03:40:34.524Z,95390.00
2024-03-12T03:41:34.520Z,95391.00
2024-03-12T03:42:34.547Z,95391.00
2024-03-12T03:43:34.522Z,95395.00
2024-03-12T03:44:36.334Z,95397.00
2024-03-12T03:45:34.559Z,95396.00
2024-03-12T03:46:34.540Z,95400.00
2024-03-12T03:47:34.552Z,95400.00
2024-03-12T03:48:34.624Z,95400.00
2024-03-12T03:49:34.630Z,95399.00
2024-03-12T03:50:34.698Z,95398.00
2024-03-12T03:51:34.820Z,95399.00
2024-03-12T03:52:34.894Z,95400.00
2024-03-12T03:53:35.031Z,95402.00
2024-03-12T03:54:35.193Z,95402.00
2024-03-12T03:55:35.353Z,95404.00
2024-03-12T03:56:35.508Z,95405.00
2024-03-12T03:57:35.742Z,95406.00
2024-03-12T03:58:35.823Z,95406.00
2024-03-12T03:59:35.975Z,95406.00
2024-03-12T04:00:36.157Z,95406.00
2024-03-12T04:01:36.361Z,95405.00
2024-03-12T04:02:36.466Z,95405.00
2024-03-12T04:03:36.620Z,95407.00
2024-03-12T04:04:36.784Z,95410.00
2024-03-12T04:05:36.950Z,95411.00
2024-03-12T04:06:37.206Z,95411.00
2024-03-12T04:07:37.254Z,95414.00
2024-03-12T04:08:37.426Z,95416.00
2024-03-12T04:09:37.588Z,95419.00
2024-03-12T04:10:37.720Z,95419.00
2024-03-12T04:11:37.936Z,95419.00
2024-03-12T04:12:38.017Z,95418.00
2024-03-12T04:13:38.108Z,95415.00
2024-03-12T04:14:38.187Z,95419.00
2024-03-12T04:15:38.274Z,95417.00
2024-03-12T04:16:38.313Z,95418.00
2024-03-12T04:17:38.552Z,95421.00
2024-03-12T04:18:38.705Z,95426.00
2024-03-12T04:19:38.791Z,95429.00
2024-03-12T04:20:38.977Z,95432.00
2024-03-12T04:21:39.150Z,95432.00
2024-03-12T04:22:39.298Z,95435.00
2024-03-12T04:23:39.481Z,95435.00
2024-03-12T04:24:39.685Z,95437.00
2024-03-12T04:25:39.619Z,95441.00
2024-03-12T04:26:39.715Z,95446.00
2024-03-12T04:27:39.899Z,95448.00
2024-03-12T04:28:39.991Z,95451.00
2024-03-12T04:29:58.012Z,95452.00
2024-03-12T04:30:58.048Z,95454.00
2024-03-12T04:31:58.001Z,95452.00
2024-03-12T04:32:58.034Z,95454.00
2024-03-12T04:33:58.026Z,95456.00
2024-03-12T04:34:58.021Z,95455.00
2024-03-12T04:35:57.995Z,95458.00
2024-03-12T04:36:58.068Z,95460.00
2024-03-12T04:37:58.001Z,95462.00
2024-03-12T04:38:58.009Z,95463.00
2024-03-12T04:39:58.076Z,95467.00
2024-03-12T04:40:58.088Z,95466.00
2024-03-12T04:41:58.017Z,95467.00
2024-03-12T04:42:58.038Z,95468.00
2024-03-12T04:43:58.045Z,95469.00
2024-03-12T04:44:58.104Z,95468.00
2024-03-12T04:45:58.137Z,95469.00
2024-03-12T04:46:58.212Z,95474.00
2024-03-12T04:47:58.366Z,95479.00
2024-03-12T04:48:58.494Z,95480.00
2024-03-12T04:49:58.618Z,95482.00
2024-03-12T04:50:58.673Z,95487.00
2024-03-12T04:51:58.798Z,95489.00
2024-03-12T04:52:58.906Z,95489.00
2024-03-12T04:53:59.019Z,95492.00
2024-03-12T04:54:59.100Z,95493.00
2024-03-12T04:55:59.086Z,95496.00
2024-03-12T04:56:59.135Z,95498.00
2024-03-12T04:57:59.234Z,95498.00
2024-03-12T04:58:59.232Z,95498.00
2024-03-12T04:59:59.304Z,95496.00
2024-03-12T05:00:59.499Z,95495.00
2024-03-12T05:01:59.584Z,95491.00
2024-03-12T05:02:59.659Z,95489.00
2024-03-12T05:04:04.607Z,95490.00
2024-03-12T05:05:00.763Z,95493.00
2024-03-12T05:05:59.764Z,95494.00
2024-03-12T05:06:59.771Z,95493.00
2024-03-12T05:07:59.762Z,95494.00
2024-03-12T05:08:59.791Z,95493.00
2024-03-12T05:09:59.796Z,95494.00
2024-03-12T05:11:02.526Z,95496.00
2024-03-12T05:11:59.796Z,95497.00
2024-03-12T05:12:59.855Z,95501.00
2024-03-12T05:13:59.799Z,95505.00
2024-03-12T05:14:59.811Z,95510.00
2024-03-12T05:15:59.802Z,95511.00
2024-03-12T05:16:59.789Z,95512.00
2024-03-12T05:17:59.820Z,95515.00
2024-03-12T05:18:59.864Z,95518.00
2024-03-12T05:19:59.793Z,95520.00
2024-03-12T05:20:59.821Z,95522.00
2024-03-12T05:21:59.812Z,95523.00
2024-03-12T05:22:59.809Z,95525.00
2024-03-12T05:23:59.810Z,95528.00
2024-03-12T05:24:59.875Z,95533.00
2024-03-12T05:25:59.809Z,95533.00
2024-03-12T05:27:04.325Z,95538.00
2024-03-12T05:27:59.855Z,95539.00
2024-03-12T05:28:59.801Z,95542.00
2024-03-12T05:29:59.798Z,95541.00
2024-03-12T05:30:59.855Z,95544.00
2024-03-12T05:31:59.842Z,95545.00
2024-03-12T05:32:59.892Z,95545.00
2024-03-12T05:33:59.894Z,95543.00
2024-03-12T05:34:59.870Z,95546.00
2024-03-12T05:35:59.869Z,95545.00
2024-03-12T05:37:03.026Z,95549.00
2024-03-12T05:37:59.966Z,95547.00
2024-03-12T05:38:59.947Z,95541.00
2024-03-12T05:39:59.965Z,95537.00
2024-03-12T05:40:59.978Z,95539.00
2024-03-12T05:41:59.952Z,95538.00
2024-03-12T05:42:59.986Z,95541.00
2024-03-12T05:43:59.946Z,95543.00
2024-03-12T05:44:59.958Z,95542.00
2024-03-12T05:46:00.064Z,95541.00
2024-03-12T05:47:00.030Z,95543.00
2024-03-12T05:48:00.084Z,95542.00
2024-03-12T05:49:00.012Z,95543.00
2024-03-12T05:50:03.055Z,95542.00
2024-03-12T05:51:00.178Z,95541.00
2024-03-12T05:52:00.010Z,95542.00
2024-03-12T05:52:59.972Z,95542.00
2024-03-12T05:53:59.982Z,95540.00
2024-03-12T05:54:59.995Z,95537.00
2024-03-12T05:56:09.999Z,95540.00
2024-03-12T05:56:59.985Z,95546.00
2024-03-12T05:58:00.026Z,95548.00
2024-03-12T05:58:59.986Z,95548.00
2024-03-12T05:59:59.985Z,95552.00
2024-03-12T06:01:00.031Z,95552.00
2024-03-12T06:01:59.997Z,95551.00
2024-03-12T06:03:00.028Z,95553.00
2024-03-12T06:04:00.088Z,95556.00
2024-03-12T06:04:59.991Z,95558.00
2024-03-12T06:06:00.049Z,95559.00
2024-03-12T06:07:00.050Z,95562.00
2024-03-12T06:08:00.011Z,95564.00
2024-03-12T06:09:00.028Z,95570.00
2024-03-12T06:10:00.093Z,95573.00
2024-03-12T06:11:00.007Z,95577.00
2024-03-12T06:12:00.053Z,95580.00
2024-03-12T06:13:00.042Z,95584.00
2024-03-12T06:14:02.010Z,95588.00
2024-03-12T06:15:00.027Z,95591.00
2024-03-12T06:16:00.113Z,95596.00
2024-03-12T06:17:00.028Z,95599.00
2024-03-12T06:18:00.077Z,95604.00
2024-03-12T06:19:00.045Z,95607.00
2024-03-12T06:20:00.031Z,95610.00
2024-03-12T06:21:00.023Z,95611.00
2024-03-12T06:22:00.109Z,95613.00
2024-03-12T06:23:00.006Z,95615.00
2024-03-12T06:24:00.033Z,95616.00
2024-03-12T06:25:00.039Z,95620.00
2024-03-12T06:26:00.018Z,95621.00
2024-03-12T06:27:00.010Z,95618.00
2024-03-12T06:28:00.111Z,95623.00
2024-03-12T06:29:00.026Z,95622.00
2024-03-12T06:30:00.042Z,95625.00
2024-03-12T06:31:00.070Z,95623.00
2024-03-12T06:32:00.039Z,95617.00
2024-03-12T06:33:00.095Z,95617.00
2024-03-12T06:34:00.061Z,95617.00
2024-03-12T06:35:00.042Z,95618.00
2024-03-12T06:36:00.089Z,95620.00
2024-03-12T06:37:00.102Z,95624.00
2024-03-12T06:38:00.066Z,95627.00
2024-03-12T06:39:00.102Z,95623.00
2024-03-12T06:40:00.164Z,95621.00
2024-03-12T06:41:00.052Z,95619.00
2024-03-12T06:42:00.048Z,95620.00
2024-03-12T06:43:00.057Z,95622.00
2024-03-12T06:44:00.167Z,95624.00
2024-03-12T06:45:00.301Z,95623.00
2024-03-12T06:46:00.422Z,95625.00
2024-03-12T06:47:00.471Z,95626.00
2024-03-12T06:48:00.631Z,95625.00
2024-03-12T06:49:00.795Z,95622.00
2024-03-12T06:50:00.802Z,95623.00
2024-03-12T06:51:00.895Z,95623.00
2024-03-12T06:52:01.026Z,95625.00
2024-03-12T06:53:01.131Z,95629.00
2024-03-12T06:54:01.224Z,95631.00
2024-03-12T06:55:01.371Z,95633.00
2024-03-12T06:56:01.442Z,95634.00
2024-03-12T06:57:01.571Z,95635.00
2024-03-12T06:58:01.827Z,95640.00
2024-03-12T06:59:01.822Z,95638.00
2024-03-12T07:00:01.994Z,95640.00
2024-03-12T07:01:02.244Z,95643.00
2024-03-12T07:02:02.190Z,95646.00
2024-03-12T07:03:02.270Z,95654.00
2024-03-12T07:04:02.502Z,95662.00
2024-03-12T07:05:02.527Z,95669.00
2024-03-12T07:06:02.636Z,95672.00
2024-03-12T07:07:02.801Z,95673.00
2024-03-12T07:08:02.919Z,95676.00
2024-03-12T07:09:03.008Z,95677.00
2024-03-12T07:10:03.398Z,95677.00
2024-03-12T07:11:03.323Z,95678.00
2024-03-12T07:12:03.388Z,95676.00
2024-03-12T07:13:03.602Z,95673.00
2024-03-12T07:14:03.584Z,95668.00
2024-03-12T07:15:03.693Z,95670.00
2024-03-12T07:16:03.819Z,95673.00
2024-03-12T07:17:03.881Z,95674.00
2024-03-12T07:18:04.012Z,95674.00
2024-03-12T07:19:04.101Z,95673.00
2024-03-12T07:20:04.256Z,95673.00
2024-03-12T07:21:04.401Z,95674.00
2024-03-12T07:22:04.632Z,95671.00
2024-03-12T07:23:04.731Z,95672.00
2024-03-12T07:24:04.900Z,95670.00
2024-03-12T07:25:05.081Z,95670.00
2024-03-12T07:26:05.189Z,95671.00
2024-03-12T07:27:05.325Z,95668.00
2024-03-12T07:28:05.557Z,95672.00
2024-03-12T07:29:05.637Z,95671.00
2024-03-12T07:30:05.769Z,95671.00
2024-03-12T07:31:05.899Z,95672.00
2024-03-12T07:32:06.041Z,95674.00
2024-03-12T07:33:06.302Z,95674.00
2024-03-12T07:34:06.294Z,95675.00
2024-03-12T07:35:06.356Z,95675.00
2024-03-12T07:36:06.441Z,95673.00
2024-03-12T07:37:06.610Z,95671.00
2024-03-12T07:38:06.647Z,95669.00
2024-03-12T07:39:06.746Z,95668.00
2024-03-12T07:40:07.015Z,95668.00
2024-03-12T07:41:06.955Z,95669.00
2024-03-12T07:42:07.062Z,95667.00
2024-03-12T07:43:07.300Z,95668.00
2024-03-12T07:44:07.276Z,95669.00
2024-03-12T07:45:07.366Z,95675.00
2024-03-12T07:46:07.561Z,95678.00
2024-03-12T07:47:07.626Z,95678.00
2024-03-12T07:49:04.807Z,95689.00
2024-03-12T07:50:04.771Z,95689.00
2024-03-12T07:51:04.738Z,95690.00
2024-03-12T07:52:04.810Z,95690.00
2024-03-12T07:53:04.769Z,95693.00
2024-03-12T07:54:04.763Z,95692.00
2024-03-12T07:55:04.794Z,95692.00
2024-03-12T07:56:04.766Z,95696.00
2024-03-12T07:57:04.753Z,95694.00
2024-03-12T07:58:04.783Z,95699.00
2024-03-12T07:59:04.872Z,95705.00
2024-03-12T08:00:04.980Z,95704.00
2024-03-12T08:01:05.127Z,95703.00
2024-03-12T08:02:05.323Z,95702.00
2024-03-12T08:03:05.321Z,95702.00
2024-03-12T08:04:05.446Z,95705.00
2024-03-12T08:05:05.558Z,95705.00
2024-03-12T08:06:05.643Z,95706.00
2024-03-12T08:07:05.764Z,95709.00
2024-03-12T08:08:05.835Z,95712.00
2024-03-12T08:09:05.902Z,95717.00
2024-03-12T08:10:06.022Z,95714.00
2024-03-12T08:11:06.322Z,95714.00
2024-03-12T08:12:06.182Z,95713.00
2024-03-12T08:13:06.335Z,95714.00
2024-03-12T08:14:06.341Z,95712.00
2024-03-12T08:15:06.442Z,95713.00
2024-03-12T08:16:06.599Z,95714.00
2024-03-12T08:17:06.635Z,95717.00
2024-03-12T08:18:13.322Z,95717.00
2024-03-12T08:19:07.790Z,95716.00
2024-03-12T08:20:06.727Z,95716.00
2024-03-12T08:21:06.736Z,95718.00
2024-03-12T08:22:06.809Z,95719.00
2024-03-12T08:23:06.733Z,95719.00
2024-03-12T08:24:06.768Z,95721.00
2024-03-12T08:25:06.814Z,95719.00
2024-03-12T08:26:06.822Z,95721.00
2024-03-12T08:27:06.762Z,95720.00
2024-03-12T08:28:06.807Z,95716.00
2024-03-12T08:29:06.860Z,95718.00
2024-03-12T08:30:06.941Z,95719.00
2024-03-12T08:31:11.617Z,95720.00
2024-03-12T08:32:08.156Z,95723.00
2024-03-12T08:33:07.041Z,95725.00
2024-03-12T08:34:07.098Z,95727.00
2024-03-12T08:35:09.851Z,95730.00
2024-03-12T08:36:07.045Z,95729.00
2024-03-12T08:37:07.110Z,95729.00
2024-03-12T08:38:07.083Z,95724.00
2024-03-12T08:39:07.083Z,95723.00
2024-03-12T08:40:07.167Z,95721.00
2024-03-12T08:41:07.118Z,95717.00
2024-03-12T08:42:07.042Z,95720.00
2024-03-12T08:43:08.977Z,95723.00
2024-03-12T08:44:07.069Z,95723.00
2024-03-12T08:45:07.051Z,95726.00
2024-03-12T08:46:07.178Z,95725.00
2024-03-12T08:47:07.094Z,95726.00
2024-03-12T08:48:07.173Z,95726.00
2024-03-12T08:49:07.294Z,95725.00
2024-03-12T08:50:07.186Z,95725.00
2024-03-12T08:51:07.199Z,95724.00
2024-03-12T08:52:07.345Z,95725.00
2024-03-12T08:53:07.278Z,95726.00
2024-03-12T08:54:07.315Z,95725.00
2024-03-12T08:55:07.334Z,95721.00
2024-03-12T08:56:07.339Z,95723.00
2024-03-12T08:57:07.425Z,95722.00
2024-03-12T08:58:07.469Z,95724.00
2024-03-12T08:59:07.556Z,95723.00
2024-03-12T09:00:07.620Z,95721.00
2024-03-12T09:01:07.733Z,95718.00
2024-03-12T09:02:07.801Z,95718.00
2024-03-12T09:03:07.950Z,95721.00
2024-03-12T09:04:08.159Z,95722.00
2024-03-12T09:05:08.138Z,95723.00
2024-03-12T09:06:08.215Z,95723.00
2024-03-12T09:07:08.458Z,95721.00
2024-03-12T09:08:08.555Z,95723.00
2024-03-12T09:09:09.508Z,95721.00
2024-03-12T09:10:08.838Z,95725.00
2024-03-12T09:11:08.879Z,95724.00
2024-03-12T09:12:08.948Z,95725.00
2024-03-12T09:13:09.147Z,95726.00
2024-03-12T09:14:09.169Z,95727.00
2024-03-12T09:15:09.248Z,95729.00
2024-03-12T09:16:09.474Z,95728.00
2024-03-12T09:17:09.457Z,95729.00
2024-03-12T09:18:09.589Z,95728.00
2024-03-12T09:19:09.752Z,95732.00
2024-03-12T09:20:09.789Z,95734.00
2024-03-12T09:21:09.902Z,95734.00
2024-03-12T09:22:10.075Z,95737.00
2024-03-12T09:23:10.092Z,95738.00
2024-03-12T09:24:10.200Z,95736.00
2024-03-12T09:25:10.746Z,95735.00
2024-03-12T09:26:10.444Z,95735.00
2024-03-12T09:27:10.483Z,95735.00
2024-03-12T09:28:10.624Z,95734.00
2024-03-12T09:29:10.673Z,95733.00
2024-03-12T09:30:10.752Z,95732.00
2024-03-12T09:31:10.954Z,95733.00
2024-03-12T09:32:10.925Z,95733.00
2024-03-12T09:33:11.053Z,95733.00
2024-03-12T09:34:11.198Z,95732.00
2024-03-12T09:35:11.200Z,95736.00
2024-03-12T09:36:11.254Z,95736.00
2024-03-12T09:37:12.412Z,95741.00
2024-03-12T09:38:11.448Z,95739.00
2024-03-12T09:39:11.511Z,95740.00
2024-03-12T09:40:11.707Z,95741.00
2024-03-12T09:41:11.725Z,95741.00
2024-03-12T09:42:11.851Z,95739.00
2024-03-12T09:43:12.019Z,95738.00
2024-03-12T09:44:12.076Z,95739.00
2024-03-12T09:45:12.228Z,95741.00
2024-03-12T09:46:12.445Z,95740.00
2024-03-12T09:47:12.538Z,95742.00
2024-03-12T09:48:12.731Z,95740.00
2024-03-12T09:50:13.808Z,95745.00
2024-03-12T09:51:13.818Z,95746.00
2024-03-12T09:52:13.906Z,95744.00
2024-03-12T09:53:13.799Z,95743.00
2024-03-12T09:54:13.808Z,95742.00
2024-03-12T09:55:14.207Z,95743.00
2024-03-12T09:56:13.836Z,95741.00
2024-03-12T09:57:13.809Z,95744.00
2024-03-12T09:58:13.830Z,95743.00
2024-03-12T09:59:13.821Z,95744.00
2024-03-12T10:00:13.894Z,95745.00
2024-03-12T10:01:14.317Z,95747.00
2024-03-12T10:02:14.073Z,95746.00
2024-03-12T10:03:14.096Z,95746.00
2024-03-12T10:04:14.159Z,95747.00
2024-03-12T10:05:14.148Z,95747.00
2024-03-12T10:06:14.163Z,95743.00
2024-03-12T10:07:14.229Z,95744.00
2024-03-12T10:08:14.648Z,95743.00
2024-03-12T10:09:14.256Z,95742.00
2024-03-12T10:10:14.457Z,95742.00
2024-03-12T10:11:14.515Z,95741.00
2024-03-12T10:12:14.585Z,95742.00
2024-03-12T10:13:14.717Z,95740.00
2024-03-12T10:14:14.788Z,95740.00
2024-03-12T10:15:14.892Z,95739.00
2024-03-12T10:16:15.744Z,95739.00
2024-03-12T10:17:16.148Z,95737.00
2024-03-12T10:18:15.172Z,95735.00
2024-03-12T10:19:15.358Z,95738.00
2024-03-12T10:20:15.324Z,95739.00
2024-03-12T10:21:15.447Z,95738.00
2024-03-12T10:22:15.543Z,95739.00
2024-03-12T10:23:15.565Z,95738.00
2024-03-12T10:24:15.676Z,95737.00
2024-03-12T10:25:15.750Z,95734.00
2024-03-12T10:26:15.817Z,95735.00
2024-03-12T10:27:15.948Z,95733.00
2024-03-12T10:28:16.114Z,95730.00
2024-03-12T10:29:16.245Z,95731.00
2024-03-12T10:30:16.493Z,95730.00
2024-03-12T10:31:16.744Z,95732.00
2024-03-12T10:32:17.150Z,95732.00
2024-03-12T10:33:16.910Z,95735.00
2024-03-12T10:34:17.040Z,95736.00
2024-03-12T10:35:17.041Z,95736.00
2024-03-12T10:36:17.176Z,95737.00
2024-03-12T10:37:17.339Z,95736.00
2024-03-12T10:38:18.052Z,95734.00
2024-03-12T10:39:17.475Z,95734.00
2024-03-12T10:40:17.841Z,95731.00
2024-03-12T10:41:17.999Z,95732.00
2024-03-12T10:42:17.804Z,95732.00
2024-03-12T10:43:17.888Z,95732.00
2024-03-12T10:44:17.985Z,95729.00
2024-03-12T10:45:18.087Z,95727.00
2024-03-12T10:46:18.253Z,95727.00
2024-03-12T10:47:18.203Z,95728.00
2024-03-12T10:48:18.292Z,95726.00
2024-03-12T10:49:18.368Z,95727.00
2024-03-12T10:50:18.515Z,95726.00
2024-03-12T10:51:18.637Z,95723.00
2024-03-12T10:52:18.669Z,95722.00
2024-03-12T10:53:18.738Z,95719.00
2024-03-12T10:54:18.908Z,95722.00
2024-03-12T10:55:18.965Z,95724.00
2024-03-12T10:56:19.130Z,95723.00
2024-03-12T10:57:19.178Z,95724.00
2024-03-12T10:58:19.314Z,95723.00
2024-03-12T10:59:19.343Z,95724.00
2024-03-12T11:00:19.457Z,95719.00
2024-03-12T11:01:20.022Z,95720.00
2024-03-12T11:02:19.723Z,95718.00
2024-03-12T11:03:19.779Z,95718.00
2024-03-12T11:04:19.958Z,95719.00
2024-03-12T11:05:19.997Z,95721.00
2024-03-12T11:06:20.123Z,95722.00
2024-03-12T11:07:20.231Z,95722.00
2024-03-12T11:08:20.317Z,95720.00
2024-03-12T11:09:20.396Z,95722.00
2024-03-12T11:10:20.580Z,95723.00
2024-03-12T11:11:20.838Z,95723.00
2024-03-12T11:12:20.716Z,95721.00
2024-03-12T11:13:20.821Z,95722.00
2024-03-12T11:14:20.935Z,95719.00
2024-03-12T11:15:20.973Z,95716.00
2024-03-12T11:16:21.189Z,95715.00
2024-03-12T11:17:21.158Z,95713.00
2024-03-12T11:18:21.270Z,95713.00
2024-03-12T11:19:21.470Z,95710.00
2024-03-12T11:20:23.287Z,95711.00
2024-03-12T11:21:21.453Z,95709.00
2024-03-12T11:22:21.519Z,95712.00
2024-03-12T11:23:21.494Z,95711.00
2024-03-12T11:24:21.502Z,95711.00
2024-03-12T11:25:21.538Z,95711.00
2024-03-12T11:26:22.451Z,95711.00
2024-03-12T11:27:22.555Z,95708.00
2024-03-12T11:28:21.718Z,95708.00
2024-03-12T11:29:21.513Z,95711.00
2024-03-12T11:30:21.550Z,95708.00
2024-03-12T11:31:21.610Z,95709.00
2024-03-12T11:32:21.566Z,95708.00
2024-03-12T11:33:21.538Z,95706.00
2024-03-12T11:34:21.548Z,95705.00
2024-03-12T11:35:21.559Z,95705.00
2024-03-12T11:36:21.599Z,95705.00
2024-03-12T11:37:21.614Z,95703.00
2024-03-12T11:38:21.607Z,95701.00
2024-03-12T11:39:21.681Z,95700.00
2024-03-12T11:40:21.817Z,95699.00
2024-03-12T11:41:21.891Z,95697.00
2024-03-12T11:42:21.951Z,95699.00
2024-03-12T11:43:22.062Z,95697.00
2024-03-12T11:44:22.167Z,95699.00
2024-03-12T11:45:22.271Z,95698.00
2024-03-12T11:46:22.578Z,95698.00
2024-03-12T11:47:22.489Z,95697.00